createdAt,value
2023-01-28T00:04:07.134Z,91.73
2023-01-28T00:09:08.829Z,91.83
2023-01-28T00:14:12.214Z,92.36
2023-01-28T00:19:13.806Z,92.71
2023-01-28T00:24:15.760Z,92.81
2023-01-28T00:29:17.491Z,91.75
2023-01-28T00:34:19.716Z,92.23
2023-01-28T00:39:21.319Z,92.09
2023-01-28T00:44:22.954Z,91.56
2023-01-28T00:49:24.559Z,90.71
2023-01-28T00:54:26.244Z,90.36
2023-01-28T00:59:27.949Z,88.41
2023-01-28T01:04:35.340Z,88.13
2023-01-28T01:09:38.064Z,89.11
2023-01-28T01:14:39.609Z,88.65
2023-01-28T01:19:42.636Z,88.06
2023-01-28T01:24:44.240Z,88.36
2023-01-28T01:29:45.813Z,87.83
2023-01-28T01:34:47.465Z,88.33
2023-01-28T01:39:49.205Z,88.22
2023-01-28T01:45:00.045Z,88.14
2023-01-28T01:50:07.957Z,88.17
2023-01-28T01:55:13.297Z,86.82
2023-01-28T02:00:16.170Z,87.97
2023-01-28T02:05:20.165Z,86.40
2023-01-28T02:10:22.918Z,86.97
2023-01-28T02:15:25.236Z,85.73
2023-01-28T02:21:00.757Z,86.65
2023-01-28T02:26:09.911Z,86.55
2023-01-28T02:31:18.583Z,86.50
2023-01-28T02:36:45.421Z,87.26
2023-01-28T02:41:53.416Z,88.08
2023-01-28T02:47:13.800Z,88.41
2023-01-28T02:52:20.392Z,89.08
2023-01-28T02:57:40.859Z,89.14
2023-01-28T03:02:44.635Z,90.00
2023-01-28T03:07:47.017Z,89.51
2023-01-28T03:13:10.369Z,88.79
2023-01-28T03:18:38.765Z,88.94
2023-01-28T03:24:20.086Z,87.74
2023-01-28T03:29:42.228Z,87.90
2023-01-28T03:35:05.813Z,87.60
2023-01-28T03:40:08.172Z,87.02
2023-01-28T03:45:10.256Z,88.11
2023-01-28T03:50:12.083Z,88.03
2023-01-28T03:55:47.866Z,87.21
2023-01-28T04:00:49.452Z,87.39
2023-01-28T04:06:06.181Z,87.47
2023-01-28T04:11:27.348Z,86.60
2023-01-28T04:16:30.774Z,86.50
2023-01-28T04:21:32.899Z,85.85
2023-01-28T04:26:36.669Z,85.50
2023-01-28T04:31:39.546Z,85.01
2023-01-28T04:37:04.168Z,84.32
2023-01-28T04:42:24.166Z,83.13
2023-01-28T04:47:40.028Z,83.35
2023-01-28T04:53:00.155Z,82.68
2023-01-28T04:58:14.135Z,81.77
2023-01-28T05:03:17.835Z,82.50
2023-01-28T05:08:19.459Z,79.91
2023-01-28T05:13:21.925Z,79.25
2023-01-28T05:18:23.780Z,78.48
2023-01-28T05:23:44.351Z,79.78
2023-01-28T05:28:45.964Z,78.86
2023-01-28T05:33:47.679Z,79.39
2023-01-28T05:38:50.258Z,79.71
2023-01-28T05:43:52.054Z,79.68
2023-01-28T05:49:13.432Z,79.34
2023-01-28T05:54:45.905Z,79.28
2023-01-28T05:59:47.486Z,79.37
2023-01-28T06:04:49.075Z,78.88
2023-01-28T06:09:52.326Z,78.38
2023-01-28T06:14:56.516Z,78.49
2023-01-28T06:20:17.478Z,78.66
2023-01-28T06:25:22.497Z,78.70
2023-01-28T06:30:24.282Z,77.38
2023-01-28T06:35:25.854Z,77.24
2023-01-28T06:40:27.449Z,75.65
2023-01-28T06:45:29.275Z,76.51
2023-01-28T06:50:30.895Z,76.50
2023-01-28T06:55:32.476Z,75.42
2023-01-28T07:00:34.383Z,75.52
2023-01-28T07:05:36.021Z,74.04
2023-01-28T07:10:37.874Z,73.83
2023-01-28T07:15:39.499Z,74.37
2023-01-28T07:20:41.085Z,72.13
2023-01-28T07:25:42.618Z,73.32
2023-01-28T07:30:44.308Z,71.35
2023-01-28T07:35:46.570Z,71.79
2023-01-28T07:40:48.370Z,70.59
2023-01-28T07:45:50.188Z,70.96
2023-01-28T07:50:51.911Z,71.18
2023-01-28T07:55:59.510Z,71.06
2023-01-28T08:01:02.137Z,70.52
2023-01-28T08:06:04.024Z,71.19
2023-01-28T08:11:10.670Z,70.78
2023-01-28T08:16:12.731Z,71.31
2023-01-28T08:21:14.409Z,70.69
2023-01-28T08:26:15.949Z,69.52
2023-01-28T08:31:17.551Z,70.32
2023-01-28T08:36:19.155Z,69.43
2023-01-28T08:41:24.095Z,68.21
2023-01-28T08:46:25.861Z,72.52
2023-01-28T08:51:27.458Z,70.55
2023-01-28T08:56:30.446Z,71.65
2023-01-28T09:01:32.156Z,70.13
2023-01-28T09:06:33.816Z,69.81
2023-01-28T09:11:35.433Z,70.87
2023-01-28T09:16:36.990Z,69.36
2023-01-28T09:21:41.367Z,68.27
2023-01-28T09:26:44.486Z,68.19
2023-01-28T09:31:46.197Z,68.91
2023-01-28T09:36:47.824Z,67.39
2023-01-28T09:42:09.866Z,66.86
2023-01-28T09:47:51.915Z,65.78
2023-01-28T09:52:57.986Z,65.82
2023-01-28T09:57:59.704Z,64.99
2023-01-28T10:03:36.698Z,64.35
2023-01-28T10:09:05.908Z,63.55
2023-01-28T10:14:19.616Z,65.09
2023-01-28T10:19:30.733Z,62.98
2023-01-28T10:24:38.296Z,62.83
2023-01-28T10:29:43.915Z,63.66
2023-01-28T10:34:45.557Z,64.22
2023-01-28T10:39:47.320Z,63.89
2023-01-28T10:44:49.759Z,63.70
2023-01-28T10:49:53.491Z,64.11
2023-01-28T10:55:02.894Z,64.40
2023-01-28T11:00:26.235Z,64.66
2023-01-28T11:05:30.408Z,64.00
2023-01-28T11:10:37.558Z,65.16
2023-01-28T11:15:46.559Z,64.37
2023-01-28T11:21:03.445Z,64.31
2023-01-28T11:26:07.613Z,64.54
2023-01-28T11:31:11.368Z,64.21
2023-01-28T11:36:21.628Z,65.50
2023-01-28T11:41:34.700Z,64.96
2023-01-28T11:47:25.703Z,64.73
2023-01-28T11:53:05.059Z,66.02
2023-01-28T11:58:18.697Z,65.97
2023-01-28T12:03:34.718Z,64.08
2023-01-28T12:09:14.804Z,64.85
2023-01-28T12:14:55.587Z,66.27
2023-01-28T12:20:06.396Z,65.92
2023-01-28T12:25:25.979Z,64.99
2023-01-28T12:31:07.921Z,64.51
2023-01-28T12:36:22.206Z,64.52
2023-01-28T12:41:33.157Z,64.48
2023-01-28T12:46:45.590Z,64.79
2023-01-28T12:51:54.206Z,64.60
2023-01-28T12:56:56.514Z,65.19
2023-01-28T13:02:04.160Z,64.52
2023-01-28T13:07:20.992Z,67.15
2023-01-28T13:12:23.102Z,63.76
2023-01-28T13:17:27.724Z,65.02
2023-01-28T13:22:35.259Z,64.97
2023-01-28T13:27:36.997Z,64.52
2023-01-28T13:32:39.807Z,63.95
2023-01-28T13:37:45.271Z,64.30
2023-01-28T13:42:58.348Z,64.87
2023-01-28T13:48:18.424Z,64.88
2023-01-28T13:53:42.957Z,65.75
2023-01-28T13:59:03.332Z,64.29
2023-01-28T14:04:23.384Z,63.55
2023-01-28T14:09:54.204Z,63.54
2023-01-28T14:15:12.394Z,64.25
2023-01-28T14:20:25.328Z,65.09
2023-01-28T14:25:52.209Z,65.28
2023-01-28T14:30:58.015Z,66.21
2023-01-28T14:35:59.708Z,64.27
2023-01-28T14:41:02.131Z,63.90
2023-01-28T14:46:17.555Z,63.20
2023-01-28T14:51:54.911Z,63.43
2023-01-28T14:57:28.751Z,64.11
2023-01-28T15:02:31.316Z,64.60
2023-01-28T15:07:32.913Z,64.83
2023-01-28T15:12:37.745Z,64.23
2023-01-28T15:17:39.405Z,63.90
2023-01-28T15:22:42.280Z,68.36
2023-01-28T15:27:43.827Z,66.30
2023-01-28T15:32:45.438Z,68.76
2023-01-28T15:42:54.966Z,63.79
2023-01-28T15:48:05.130Z,65.36
2023-01-28T15:53:14.286Z,66.35
2023-01-28T15:58:29.765Z,63.81
2023-01-28T16:03:31.416Z,63.57
2023-01-28T16:08:42.552Z,63.82
2023-01-28T16:13:44.495Z,62.37
2023-01-28T16:18:49.089Z,63.75
2023-01-28T16:24:01.415Z,61.91
2023-01-28T16:29:14.221Z,61.62
2023-01-28T16:34:15.860Z,62.81
2023-01-28T16:39:17.486Z,61.95
2023-01-28T16:44:19.043Z,61.84
2023-01-28T16:49:20.627Z,61.97
2023-01-28T16:54:22.516Z,62.45
2023-01-28T16:59:24.095Z,62.24
2023-01-28T17:04:25.823Z,62.46
2023-01-28T17:09:27.513Z,61.71
2023-01-28T17:14:29.077Z,62.55
2023-01-28T17:19:31.084Z,62.00
2023-01-28T17:24:32.708Z,62.27
2023-01-28T17:29:34.310Z,62.51
2023-01-28T17:34:35.913Z,64.10
2023-01-28T17:39:37.557Z,63.46
2023-01-28T17:44:39.168Z,65.28
2023-01-28T17:49:40.731Z,65.35
2023-01-28T17:54:42.353Z,65.19
2023-01-28T17:59:43.980Z,64.15
2023-01-28T18:04:46.614Z,66.28
2023-01-28T18:09:48.749Z,63.82
2023-01-28T18:14:50.486Z,63.92
2023-01-28T18:19:52.017Z,65.29
2023-01-28T18:24:53.634Z,65.99
2023-01-28T18:29:55.259Z,65.48
2023-01-28T18:34:56.875Z,65.42
2023-01-28T18:39:58.489Z,64.72
2023-01-28T18:45:00.145Z,65.61
2023-01-28T18:50:02.115Z,65.09
2023-01-28T18:55:04.151Z,66.22
2023-01-28T19:00:06.473Z,65.39
2023-01-28T19:05:08.348Z,66.02
2023-01-28T19:10:10.263Z,66.13
2023-01-28T19:15:12.095Z,70.38
2023-01-28T19:20:14.077Z,68.03
2023-01-28T19:25:16.479Z,68.09
2023-01-28T19:30:18.387Z,67.76
2023-01-28T19:35:21.076Z,68.72
2023-01-28T19:40:23.921Z,70.43
2023-01-28T19:45:25.561Z,70.79
2023-01-28T19:50:27.148Z,70.51
2023-01-28T19:55:28.738Z,71.16
2023-01-28T20:00:30.352Z,69.12
2023-01-28T20:05:32.203Z,70.20
2023-01-28T20:10:33.821Z,70.13
2023-01-28T20:15:39.730Z,71.03
2023-01-28T20:20:41.312Z,71.28
2023-01-28T20:25:42.842Z,70.55
2023-01-28T20:30:44.567Z,72.79
2023-01-28T20:35:46.540Z,72.75
2023-01-28T20:40:48.150Z,71.20
2023-01-28T20:45:50.273Z,72.56
2023-01-28T20:50:51.821Z,74.08
2023-01-28T20:55:58.400Z,73.66
2023-01-28T21:00:59.998Z,71.02
2023-01-28T21:06:01.688Z,71.10
2023-01-28T21:11:04.149Z,69.78
2023-01-28T21:16:06.333Z,71.11
2023-01-28T21:21:11.605Z,72.31
2023-01-28T21:26:15.309Z,70.76
2023-01-28T21:31:17.865Z,69.13
2023-01-28T21:36:20.085Z,69.28
2023-01-28T21:41:22.159Z,73.00
2023-01-28T21:46:28.244Z,70.97
2023-01-28T21:51:36.197Z,72.60
2023-01-28T21:56:38.070Z,71.11
2023-01-28T22:01:39.728Z,70.47
2023-01-28T22:06:42.353Z,72.62
2023-01-28T22:11:44.684Z,69.59
2023-01-28T22:16:46.988Z,71.74
2023-01-28T22:21:48.666Z,69.53
2023-01-28T22:26:50.901Z,69.01
2023-01-28T22:31:53.477Z,69.14
2023-01-28T22:36:55.142Z,68.57
2023-01-28T22:41:56.787Z,68.76
2023-01-28T22:46:58.338Z,68.01
2023-01-28T22:51:59.997Z,67.12
2023-01-28T22:57:01.593Z,69.57
2023-01-28T23:02:03.245Z,67.68
2023-01-28T23:07:05.385Z,70.53
2023-01-28T23:12:07.285Z,67.76
2023-01-28T23:17:29.945Z,70.00
2023-01-28T23:22:51.195Z,69.94
2023-01-28T23:27:52.803Z,69.40
2023-01-28T23:32:56.447Z,68.88
2023-01-28T23:37:58.430Z,70.70
2023-01-28T23:43:00.155Z,68.86
2023-01-28T23:48:04.218Z,69.17
2023-01-28T23:53:12.992Z,68.03
2023-01-28T23:58:14.586Z,69.16
